sensor_id;sensor_type;location;lat;lon;timestamp;pressure;altitude;pressure_sealevel;temperature;humidity
23229;BME280;11783;50.350;6.576;2023-06-10T00:01:45;96089.44;;;18.28;61.35
23229;BME280;11783;50.350;6.576;2023-06-10T00:04:15;96086.03;;;18.22;62.34
23229;BME280;11783;50.350;6.576;2023-06-10T00:06:43;96083.13;;;18.19;61.70
23229;BME280;11783;50.350;6.576;2023-06-10T00:09:08;96084.31;;;18.12;62.15
23229;BME280;11783;50.350;6.576;2023-06-10T00:11:35;96086.59;;;18.05;62.25
23229;BME280;11783;50.350;6.576;2023-06-10T00:14:01;96088.75;;;18.03;62.16
23229;BME280;11783;50.350;6.576;2023-06-10T00:16:26;96084.53;;;17.97;62.93
23229;BME280;11783;50.350;6.576;2023-06-10T00:18:52;96094.13;;;17.84;63.06
23229;BME280;11783;50.350;6.576;2023-06-10T00:21:18;96090.16;;;17.82;63.79
23229;BME280;11783;50.350;6.576;2023-06-10T00:23:44;96095.09;;;17.75;63.36
23229;BME280;11783;50.350;6.576;2023-06-10T00:26:09;96094.91;;;17.71;64.40
23229;BME280;11783;50.350;6.576;2023-06-10T00:28:35;96092.53;;;17.65;64.02
23229;BME280;11783;50.350;6.576;2023-06-10T00:31:01;96102.25;;;17.61;65.15
23229;BME280;11783;50.350;6.576;2023-06-10T00:33:26;96091.09;;;17.53;64.49
23229;BME280;11783;50.350;6.576;2023-06-10T00:35:52;96099.75;;;17.50;65.08
23229;BME280;11783;50.350;6.576;2023-06-10T00:38:17;96100.53;;;17.51;64.47
23229;BME280;11783;50.350;6.576;2023-06-10T00:40:42;96099.22;;;17.48;64.35
23229;BME280;11783;50.350;6.576;2023-06-10T00:43:08;96105.66;;;17.47;64.87
23229;BME280;11783;50.350;6.576;2023-06-10T00:45:34;96097.69;;;17.42;64.96
23229;BME280;11783;50.350;6.576;2023-06-10T00:48:00;96095.38;;;17.36;65.34
23229;BME280;11783;50.350;6.576;2023-06-10T00:50:27;96097.84;;;17.32;65.28
23229;BME280;11783;50.350;6.576;2023-06-10T00:52:53;96101.31;;;17.33;65.20
23229;BME280;11783;50.350;6.576;2023-06-10T00:55:19;96094.19;;;17.23;65.95
23229;BME280;11783;50.350;6.576;2023-06-10T00:57:46;96102.22;;;17.23;65.81
23229;BME280;11783;50.350;6.576;2023-06-10T01:00:14;96094.47;;;17.21;66.20
23229;BME280;11783;50.350;6.576;2023-06-10T01:02:40;96101.88;;;17.11;68.00
23229;BME280;11783;50.350;6.576;2023-06-10T01:05:06;96097.84;;;17.08;67.09
23229;BME280;11783;50.350;6.576;2023-06-10T01:10:33;96100.44;;;16.94;67.42
23229;BME280;11783;50.350;6.576;2023-06-10T01:13:07;96097.00;;;16.89;66.95
23229;BME280;11783;50.350;6.576;2023-06-10T01:15:37;96100.31;;;16.81;67.40
23229;BME280;11783;50.350;6.576;2023-06-10T01:18:05;96093.41;;;16.75;68.59
23229;BME280;11783;50.350;6.576;2023-06-10T01:20:34;96105.78;;;16.71;67.96
23229;BME280;11783;50.350;6.576;2023-06-10T01:23:02;96105.56;;;16.67;68.56
23229;BME280;11783;50.350;6.576;2023-06-10T01:25:29;96107.69;;;16.65;69.81
23229;BME280;11783;50.350;6.576;2023-06-10T01:33:28;96102.72;;;16.53;68.84
23229;BME280;11783;50.350;6.576;2023-06-10T01:35:57;96099.78;;;16.50;68.42
23229;BME280;11783;50.350;6.576;2023-06-10T01:38:25;96103.34;;;16.45;68.83
23229;BME280;11783;50.350;6.576;2023-06-10T01:40:53;96103.06;;;16.47;68.97
23229;BME280;11783;50.350;6.576;2023-06-10T01:43:21;96108.41;;;16.47;68.40
23229;BME280;11783;50.350;6.576;2023-06-10T01:45:46;96107.97;;;16.40;69.54
23229;BME280;11783;50.350;6.576;2023-06-10T01:48:12;96103.16;;;16.37;69.20
23229;BME280;11783;50.350;6.576;2023-06-10T01:50:37;96103.75;;;16.28;70.96
23229;BME280;11783;50.350;6.576;2023-06-10T01:53:03;96104.38;;;16.20;70.72
23229;BME280;11783;50.350;6.576;2023-06-10T01:55:28;96105.47;;;16.14;70.41
23229;BME280;11783;50.350;6.576;2023-06-10T01:57:54;96111.97;;;16.08;70.80
23229;BME280;11783;50.350;6.576;2023-06-10T02:00:20;96107.19;;;16.05;70.82
23229;BME280;11783;50.350;6.576;2023-06-10T02:02:45;96100.50;;;16.02;70.15
23229;BME280;11783;50.350;6.576;2023-06-10T02:05:11;96112.84;;;15.98;70.85
23229;BME280;11783;50.350;6.576;2023-06-10T02:07:36;96113.91;;;16.02;70.96
23229;BME280;11783;50.350;6.576;2023-06-10T02:10:02;96113.06;;;16.07;70.27
23229;BME280;11783;50.350;6.576;2023-06-10T02:12:27;96110.38;;;16.07;69.93
23229;BME280;11783;50.350;6.576;2023-06-10T02:14:52;96110.41;;;16.02;71.12
23229;BME280;11783;50.350;6.576;2023-06-10T02:17:18;96112.81;;;16.03;71.07
23229;BME280;11783;50.350;6.576;2023-06-10T02:19:44;96113.09;;;16.02;70.45
23229;BME280;11783;50.350;6.576;2023-06-10T02:22:18;96104.53;;;16.00;72.90
23229;BME280;11783;50.350;6.576;2023-06-10T02:24:44;96107.56;;;15.88;72.13
23229;BME280;11783;50.350;6.576;2023-06-10T02:27:09;96114.06;;;15.82;70.89
23229;BME280;11783;50.350;6.576;2023-06-10T02:29:35;96106.28;;;15.81;71.82
23229;BME280;11783;50.350;6.576;2023-06-10T02:32:02;96106.03;;;15.77;72.45
23229;BME280;11783;50.350;6.576;2023-06-10T02:34:27;96102.59;;;15.71;72.84
23229;BME280;11783;50.350;6.576;2023-06-10T02:36:53;96101.59;;;15.62;73.54
23229;BME280;11783;50.350;6.576;2023-06-10T02:39:19;96100.50;;;15.58;73.38
23229;BME280;11783;50.350;6.576;2023-06-10T02:41:44;96112.31;;;15.52;74.80
23229;BME280;11783;50.350;6.576;2023-06-10T02:44:10;96108.09;;;15.46;73.25
23229;BME280;11783;50.350;6.576;2023-06-10T02:46:35;96111.31;;;15.38;74.74
23229;BME280;11783;50.350;6.576;2023-06-10T02:49:00;96111.09;;;15.34;74.83
23229;BME280;11783;50.350;6.576;2023-06-10T02:51:26;96105.22;;;15.32;73.97
23229;BME280;11783;50.350;6.576;2023-06-10T02:53:52;96105.47;;;15.31;74.46
23229;BME280;11783;50.350;6.576;2023-06-10T02:56:18;96107.91;;;15.27;74.14
23229;BME280;11783;50.350;6.576;2023-06-10T02:58:44;96109.28;;;15.25;74.76
23229;BME280;11783;50.350;6.576;2023-06-10T03:01:09;96115.69;;;15.19;75.47
23229;BME280;11783;50.350;6.576;2023-06-10T03:03:35;96115.25;;;15.06;76.34
23229;BME280;11783;50.350;6.576;2023-06-10T03:06:02;96117.41;;;14.94;76.80
23229;BME280;11783;50.350;6.576;2023-06-10T03:08:28;96119.06;;;14.80;76.32
23229;BME280;11783;50.350;6.576;2023-06-10T03:10:53;96112.94;;;14.74;75.62
23229;BME280;11783;50.350;6.576;2023-06-10T03:13:19;96112.69;;;14.71;75.99
23229;BME280;11783;50.350;6.576;2023-06-10T03:15:44;96119.06;;;14.75;76.10
23229;BME280;11783;50.350;6.576;2023-06-10T03:18:11;96115.06;;;14.77;76.87
23229;BME280;11783;50.350;6.576;2023-06-10T03:20:36;96112.66;;;14.76;77.86
23229;BME280;11783;50.350;6.576;2023-06-10T03:23:04;96124.44;;;14.75;78.49
23229;BME280;11783;50.350;6.576;2023-06-10T03:25:31;96129.00;;;14.69;78.06
23229;BME280;11783;50.350;6.576;2023-06-10T03:27:57;96129.78;;;14.70;77.72
23229;BME280;11783;50.350;6.576;2023-06-10T03:30:22;96124.16;;;14.66;79.04
23229;BME280;11783;50.350;6.576;2023-06-10T03:32:47;96122.59;;;14.60;79.04
23229;BME280;11783;50.350;6.576;2023-06-10T03:35:14;96134.09;;;14.56;79.19
23229;BME280;11783;50.350;6.576;2023-06-10T03:37:40;96133.56;;;14.48;80.99
23229;BME280;11783;50.350;6.576;2023-06-10T03:40:07;96138.91;;;14.43;80.58
23229;BME280;11783;50.350;6.576;2023-06-10T03:42:34;96131.69;;;14.39;80.79
23229;BME280;11783;50.350;6.576;2023-06-10T03:44:59;96138.91;;;14.33;80.40
23229;BME280;11783;50.350;6.576;2023-06-10T03:47:25;96140.50;;;14.29;80.61
23229;BME280;11783;50.350;6.576;2023-06-10T03:49:50;96142.66;;;14.22;79.86
23229;BME280;11783;50.350;6.576;2023-06-10T03:52:15;96141.03;;;14.26;81.19
23229;BME280;11783;50.350;6.576;2023-06-10T03:54:41;96143.72;;;14.26;80.75
23229;BME280;11783;50.350;6.576;2023-06-10T03:57:06;96147.72;;;14.29;80.35
23229;BME280;11783;50.350;6.576;2023-06-10T03:59:32;96150.13;;;14.30;80.99
23229;BME280;11783;50.350;6.576;2023-06-10T04:01:57;96146.38;;;14.26;81.42
23229;BME280;11783;50.350;6.576;2023-06-10T04:04:23;96139.69;;;14.23;80.26
23229;BME280;11783;50.350;6.576;2023-06-10T04:06:48;96135.16;;;14.29;80.46
23229;BME280;11783;50.350;6.576;2023-06-10T04:09:14;96143.69;;;14.31;80.76
23229;BME280;11783;50.350;6.576;2023-06-10T04:11:41;96146.66;;;14.30;79.49
23229;BME280;11783;50.350;6.576;2023-06-10T04:14:08;96141.84;;;14.37;79.25
23229;BME280;11783;50.350;6.576;2023-06-10T04:16:33;96135.16;;;14.34;80.03
23229;BME280;11783;50.350;6.576;2023-06-10T04:18:59;96147.44;;;14.30;80.29
23229;BME280;11783;50.350;6.576;2023-06-10T04:21:26;96143.72;;;14.26;80.68
23229;BME280;11783;50.350;6.576;2023-06-10T04:23:51;96146.41;;;14.21;80.41
23229;BME280;11783;50.350;6.576;2023-06-10T04:26:17;96151.22;;;14.19;80.83
23229;BME280;11783;50.350;6.576;2023-06-10T04:28:43;96149.88;;;14.16;82.40
23229;BME280;11783;50.350;6.576;2023-06-10T04:31:08;96152.78;;;14.10;83.46
23229;BME280;11783;50.350;6.576;2023-06-10T04:33:34;96155.47;;;14.05;83.88
23229;BME280;11783;50.350;6.576;2023-06-10T04:35:59;96158.69;;;13.97;85.09
23229;BME280;11783;50.350;6.576;2023-06-10T04:38:24;96160.78;;;13.89;85.72
23229;BME280;11783;50.350;6.576;2023-06-10T04:40:50;96157.31;;;13.84;85.08
23229;BME280;11783;50.350;6.576;2023-06-10T04:43:15;96161.31;;;13.81;84.71
23229;BME280;11783;50.350;6.576;2023-06-10T04:45:41;96159.47;;;13.77;84.89
23229;BME280;11783;50.350;6.576;2023-06-10T04:48:10;96158.38;;;13.78;84.68
23229;BME280;11783;50.350;6.576;2023-06-10T04:50:36;96163.72;;;13.78;84.51
23229;BME280;11783;50.350;6.576;2023-06-10T04:53:02;96164.81;;;13.82;84.35
23229;BME280;11783;50.350;6.576;2023-06-10T04:55:27;96164.00;;;13.86;84.39
23229;BME280;11783;50.350;6.576;2023-06-10T04:57:53;96160.78;;;13.89;83.35
23229;BME280;11783;50.350;6.576;2023-06-10T05:00:18;96153.03;;;13.93;85.10
23229;BME280;11783;50.350;6.576;2023-06-10T05:02:44;96157.84;;;13.91;84.85
23229;BME280;11783;50.350;6.576;2023-06-10T05:05:10;96157.09;;;13.96;84.99
23229;BME280;11783;50.350;6.576;2023-06-10T05:07:35;96154.94;;;13.98;83.98
23229;BME280;11783;50.350;6.576;2023-06-10T05:10:01;96155.75;;;13.98;84.88
23229;BME280;11783;50.350;6.576;2023-06-10T05:12:26;96151.19;;;13.99;84.50
23229;BME280;11783;50.350;6.576;2023-06-10T05:14:52;96150.94;;;14.05;83.91
23229;BME280;11783;50.350;6.576;2023-06-10T05:17:17;96150.13;;;14.10;84.51
23229;BME280;11783;50.350;6.576;2023-06-10T05:19:43;96158.41;;;14.18;84.46
23229;BME280;11783;50.350;6.576;2023-06-10T05:22:09;96155.47;;;14.25;84.97
23229;BME280;11783;50.350;6.576;2023-06-10T05:24:34;96151.19;;;14.29;84.62
23229;BME280;11783;50.350;6.576;2023-06-10T05:27:00;96152.28;;;14.33;84.42
23229;BME280;11783;50.350;6.576;2023-06-10T05:29:25;96150.66;;;14.37;85.81
23229;BME280;11783;50.350;6.576;2023-06-10T05:31:51;96149.31;;;14.40;84.31
23229;BME280;11783;50.350;6.576;2023-06-10T05:34:16;96156.81;;;14.43;84.38
23229;BME280;11783;50.350;6.576;2023-06-10T05:36:42;96157.91;;;14.47;84.21
23229;BME280;11783;50.350;6.576;2023-06-10T05:39:09;96152.28;;;14.48;83.81
23229;BME280;11783;50.350;6.576;2023-06-10T05:41:34;96152.56;;;14.52;84.02
23229;BME280;11783;50.350;6.576;2023-06-10T05:44:00;96150.41;;;14.54;83.87
23229;BME280;11783;50.350;6.576;2023-06-10T05:46:25;96150.69;;;14.58;85.52
23229;BME280;11783;50.350;6.576;2023-06-10T05:48:51;96153.06;;;14.59;85.30
23229;BME280;11783;50.350;6.576;2023-06-10T05:51:16;96153.59;;;14.61;84.14
23229;BME280;11783;50.350;6.576;2023-06-10T05:53:42;96156.56;;;14.60;84.52
23229;BME280;11783;50.350;6.576;2023-06-10T05:56:07;96159.22;;;14.60;84.61
23229;BME280;11783;50.350;6.576;2023-06-10T05:58:33;96155.19;;;14.67;84.18
23229;BME280;11783;50.350;6.576;2023-06-10T06:00:58;96160.28;;;14.74;84.99
23229;BME280;11783;50.350;6.576;2023-06-10T06:03:24;96155.97;;;14.83;86.48
23229;BME280;11783;50.350;6.576;2023-06-10T06:05:49;96165.59;;;14.84;83.30
23229;BME280;11783;50.350;6.576;2023-06-10T06:08:15;96162.66;;;14.85;84.47
23229;BME280;11783;50.350;6.576;2023-06-10T06:10:44;96161.31;;;14.88;82.60
23229;BME280;11783;50.350;6.576;2023-06-10T06:13:10;96162.38;;;14.87;83.57
23229;BME280;11783;50.350;6.576;2023-06-10T06:15:35;96156.78;;;14.89;82.29
23229;BME280;11783;50.350;6.576;2023-06-10T06:18:01;96152.44;;;14.98;81.76
23229;BME280;11783;50.350;6.576;2023-06-10T06:20:26;96154.56;;;15.01;81.63
23229;BME280;11783;50.350;6.576;2023-06-10T06:22:52;96155.38;;;15.01;80.67
23229;BME280;11783;50.350;6.576;2023-06-10T06:25:17;96161.25;;;15.03;79.02
23229;BME280;11783;50.350;6.576;2023-06-10T06:27:42;96159.09;;;15.05;78.25
23229;BME280;11783;50.350;6.576;2023-06-10T06:30:08;96163.63;;;15.15;83.50
23229;BME280;11783;50.350;6.576;2023-06-10T06:32:34;96150.25;;;15.15;80.90
23229;BME280;11783;50.350;6.576;2023-06-10T06:34:59;96155.34;;;15.17;81.74
23229;BME280;11783;50.350;6.576;2023-06-10T06:37:25;96161.19;;;15.24;83.42
23229;BME280;11783;50.350;6.576;2023-06-10T06:39:51;96161.44;;;15.32;86.92
23229;BME280;11783;50.350;6.576;2023-06-10T06:42:17;96158.44;;;15.44;88.33
23229;BME280;11783;50.350;6.576;2023-06-10T06:44:43;96162.41;;;15.62;89.89
23229;BME280;11783;50.350;6.576;2023-06-10T06:47:09;96168.97;;;15.80;89.53
23229;BME280;11783;50.350;6.576;2023-06-10T06:49:34;96161.97;;;15.89;89.25
23229;BME280;11783;50.350;6.576;2023-06-10T06:52:00;96156.78;;;16.02;89.23
23229;BME280;11783;50.350;6.576;2023-06-10T06:54:25;96161.78;;;16.14;87.89
23229;BME280;11783;50.350;6.576;2023-06-10T06:56:51;96166.28;;;16.24;87.49
23229;BME280;11783;50.350;6.576;2023-06-10T06:59:16;96169.75;;;16.24;88.44
23229;BME280;11783;50.350;6.576;2023-06-10T07:01:44;96162.69;;;16.33;89.32
23229;BME280;11783;50.350;6.576;2023-06-10T07:04:10;96172.22;;;16.50;88.84
23229;BME280;11783;50.350;6.576;2023-06-10T07:06:35;96162.00;;;16.57;90.09
23229;BME280;11783;50.350;6.576;2023-06-10T07:09:01;96173.13;;;16.74;90.09
23229;BME280;11783;50.350;6.576;2023-06-10T07:11:27;96162.06;;;16.81;89.56
23229;BME280;11783;50.350;6.576;2023-06-10T07:13:52;96163.31;;;16.88;89.58
23229;BME280;11783;50.350;6.576;2023-06-10T07:16:18;96167.28;;;16.96;88.57
23229;BME280;11783;50.350;6.576;2023-06-10T07:18:46;96159.78;;;17.17;89.25
23229;BME280;11783;50.350;6.576;2023-06-10T07:21:11;96158.84;;;17.26;88.80
23229;BME280;11783;50.350;6.576;2023-06-10T07:23:36;96164.69;;;17.34;87.69
23229;BME280;11783;50.350;6.576;2023-06-10T07:26:02;96154.91;;;17.43;86.55
23229;BME280;11783;50.350;6.576;2023-06-10T07:28:27;96146.84;;;17.62;86.12
23229;BME280;11783;50.350;6.576;2023-06-10T07:30:53;96147.47;;;17.77;84.47
23229;BME280;11783;50.350;6.576;2023-06-10T07:33:18;96150.47;;;17.95;84.32
23229;BME280;11783;50.350;6.576;2023-06-10T07:35:44;96158.22;;;18.15;84.74
23229;BME280;11783;50.350;6.576;2023-06-10T07:38:09;96154.56;;;18.43;85.84
23229;BME280;11783;50.350;6.576;2023-06-10T07:40:35;96159.31;;;18.65;83.77
23229;BME280;11783;50.350;6.576;2023-06-10T07:43:01;96159.97;;;18.90;82.04
23229;BME280;11783;50.350;6.576;2023-06-10T07:45:26;96157.38;;;19.12;80.85
23229;BME280;11783;50.350;6.576;2023-06-10T07:47:52;96162.47;;;19.41;80.14
23229;BME280;11783;50.350;6.576;2023-06-10T07:50:17;96154.44;;;19.91;82.50
23229;BME280;11783;50.350;6.576;2023-06-10T07:52:42;96157.47;;;20.12;78.44
23229;BME280;11783;50.350;6.576;2023-06-10T07:55:08;96158.59;;;20.33;74.83
23229;BME280;11783;50.350;6.576;2023-06-10T07:57:33;96154.81;;;20.56;72.93
23229;BME280;11783;50.350;6.576;2023-06-10T08:00:02;96157.84;;;20.86;68.17
23229;BME280;11783;50.350;6.576;2023-06-10T08:02:29;96153.34;;;21.12;67.04
23229;BME280;11783;50.350;6.576;2023-06-10T08:04:55;96155.34;;;21.38;71.25
23229;BME280;11783;50.350;6.576;2023-06-10T08:07:21;96167.06;;;21.64;64.34
23229;BME280;11783;50.350;6.576;2023-06-10T08:09:47;96163.91;;;21.88;66.62
23229;BME280;11783;50.350;6.576;2023-06-10T08:12:13;96155.22;;;22.17;65.64
23229;BME280;11783;50.350;6.576;2023-06-10T08:14:38;96155.97;;;22.44;60.54
23229;BME280;11783;50.350;6.576;2023-06-10T08:17:04;96160.09;;;22.76;62.55
23229;BME280;11783;50.350;6.576;2023-06-10T08:19:31;96158.44;;;23.01;55.67
23229;BME280;11783;50.350;6.576;2023-06-10T08:21:56;96161.22;;;23.21;59.57
23229;BME280;11783;50.350;6.576;2023-06-10T08:24:22;96165.63;;;23.43;55.28
23229;BME280;11783;50.350;6.576;2023-06-10T08:26:47;96161.06;;;23.65;53.47
23229;BME280;11783;50.350;6.576;2023-06-10T08:29:13;96160.63;;;23.83;56.59
23229;BME280;11783;50.350;6.576;2023-06-10T08:31:42;96163.06;;;23.97;53.40
23229;BME280;11783;50.350;6.576;2023-06-10T08:34:08;96158.84;;;24.08;50.79
23229;BME280;11783;50.350;6.576;2023-06-10T08:36:34;96150.91;;;24.24;52.57
23229;BME280;11783;50.350;6.576;2023-06-10T08:38:59;96155.53;;;24.24;49.01
23229;BME280;11783;50.350;6.576;2023-06-10T08:41:25;96157.75;;;24.30;49.08
23229;BME280;11783;50.350;6.576;2023-06-10T08:44:06;96155.09;;;24.42;48.35
23229;BME280;11783;50.350;6.576;2023-06-10T08:46:33;96156.41;;;24.57;47.54
23229;BME280;11783;50.350;6.576;2023-06-10T08:49:03;96168.41;;;24.68;45.54
23229;BME280;11783;50.350;6.576;2023-06-10T08:51:31;96161.91;;;24.82;47.65
23229;BME280;11783;50.350;6.576;2023-06-10T08:54:18;96158.75;;;24.92;45.40
23229;BME280;11783;50.350;6.576;2023-06-10T08:56:48;96157.25;;;25.15;46.27
23229;BME280;11783;50.350;6.576;2023-06-10T08:59:15;96168.25;;;25.31;45.96
23229;BME280;11783;50.350;6.576;2023-06-10T09:01:42;96162.00;;;25.43;44.22
23229;BME280;11783;50.350;6.576;2023-06-10T09:04:08;96164.75;;;25.55;44.41
23229;BME280;11783;50.350;6.576;2023-06-10T09:06:34;96155.13;;;25.70;42.89
23229;BME280;11783;50.350;6.576;2023-06-10T09:09:02;96161.91;;;25.88;42.99
23229;BME280;11783;50.350;6.576;2023-06-10T09:11:28;96162.91;;;26.08;42.96
23229;BME280;11783;50.350;6.576;2023-06-10T09:13:53;96157.28;;;26.16;40.92
23229;BME280;11783;50.350;6.576;2023-06-10T09:16:19;96154.44;;;26.25;40.43
23229;BME280;11783;50.350;6.576;2023-06-10T09:18:45;96145.44;;;26.37;42.26
23229;BME280;11783;50.350;6.576;2023-06-10T09:21:10;96141.81;;;26.45;41.82
23229;BME280;11783;50.350;6.576;2023-06-10T09:23:37;96140.28;;;26.60;39.76
23229;BME280;11783;50.350;6.576;2023-06-10T09:26:02;96142.03;;;26.68;40.96
23229;BME280;11783;50.350;6.576;2023-06-10T09:28:33;96138.28;;;26.88;39.80
23229;BME280;11783;50.350;6.576;2023-06-10T09:31:03;96139.84;;;27.01;38.33
23229;BME280;11783;50.350;6.576;2023-06-10T09:33:29;96154.53;;;27.12;39.17
23229;BME280;11783;50.350;6.576;2023-06-10T09:35:55;96160.16;;;27.20;36.60
23229;BME280;11783;50.350;6.576;2023-06-10T09:38:22;96143.44;;;27.21;36.70
23229;BME280;11783;50.350;6.576;2023-06-10T09:40:52;96148.19;;;27.40;36.38
23229;BME280;11783;50.350;6.576;2023-06-10T09:43:18;96164.22;;;27.41;34.63
23229;BME280;11783;50.350;6.576;2023-06-10T09:45:43;96151.38;;;27.26;35.22
23229;BME280;11783;50.350;6.576;2023-06-10T09:48:09;96166.50;;;27.24;34.58
23229;BME280;11783;50.350;6.576;2023-06-10T09:50:41;96169.31;;;27.27;35.64
23229;BME280;11783;50.350;6.576;2023-06-10T09:53:07;96159.28;;;27.47;35.40
23229;BME280;11783;50.350;6.576;2023-06-10T09:55:33;96161.03;;;27.55;36.08
23229;BME280;11783;50.350;6.576;2023-06-10T09:57:59;96160.69;;;27.41;33.96
23229;BME280;11783;50.350;6.576;2023-06-10T10:00:25;96160.00;;;27.44;33.96
23229;BME280;11783;50.350;6.576;2023-06-10T10:02:52;96154.38;;;27.37;34.52
23229;BME280;11783;50.350;6.576;2023-06-10T10:05:20;96159.03;;;27.21;33.75
23229;BME280;11783;50.350;6.576;2023-06-10T10:07:49;96165.63;;;27.20;34.65
23229;BME280;11783;50.350;6.576;2023-06-10T10:10:20;96154.28;;;27.18;33.61
23229;BME280;11783;50.350;6.576;2023-06-10T10:12:53;96158.84;;;27.13;34.13
23229;BME280;11783;50.350;6.576;2023-06-10T10:15:21;96144.94;;;27.19;36.21
23229;BME280;11783;50.350;6.576;2023-06-10T10:18:07;96153.03;;;27.31;34.78
23229;BME280;11783;50.350;6.576;2023-06-10T10:20:37;96153.22;;;27.38;34.36
23229;BME280;11783;50.350;6.576;2023-06-10T10:23:05;96157.25;;;27.44;33.68
23229;BME280;11783;50.350;6.576;2023-06-10T10:25:38;96155.22;;;27.57;33.19
23229;BME280;11783;50.350;6.576;2023-06-10T10:28:12;96154.09;;;27.73;34.41
23229;BME280;11783;50.350;6.576;2023-06-10T10:30:41;96145.63;;;27.79;34.03
23229;BME280;11783;50.350;6.576;2023-06-10T10:33:16;96147.25;;;27.99;33.59
23229;BME280;11783;50.350;6.576;2023-06-10T10:35:43;96153.88;;;28.17;32.55
23229;BME280;11783;50.350;6.576;2023-06-10T10:38:11;96155.81;;;28.17;33.26
23229;BME280;11783;50.350;6.576;2023-06-10T10:40:37;96143.81;;;28.21;31.53
23229;BME280;11783;50.350;6.576;2023-06-10T10:43:04;96154.22;;;28.31;31.38
23229;BME280;11783;50.350;6.576;2023-06-10T10:45:30;96147.38;;;28.41;30.64
23229;BME280;11783;50.350;6.576;2023-06-10T10:47:56;96147.88;;;28.66;32.40
23229;BME280;11783;50.350;6.576;2023-06-10T10:50:22;96144.97;;;28.78;30.99
23229;BME280;11783;50.350;6.576;2023-06-10T10:53:08;96150.25;;;28.87;30.16
23229;BME280;11783;50.350;6.576;2023-06-10T10:55:33;96146.97;;;28.81;30.97
23229;BME280;11783;50.350;6.576;2023-06-10T10:58:03;96144.53;;;28.95;28.63
23229;BME280;11783;50.350;6.576;2023-06-10T11:00:32;96153.00;;;29.10;30.58
23229;BME280;11783;50.350;6.576;2023-06-10T11:03:03;96141.38;;;29.16;29.45
23229;BME280;11783;50.350;6.576;2023-06-10T11:05:47;96148.50;;;29.21;29.05
23229;BME280;11783;50.350;6.576;2023-06-10T11:10:54;96140.78;;;29.27;28.76
23229;BME280;11783;50.350;6.576;2023-06-10T11:13:21;96140.66;;;29.42;28.84
23229;BME280;11783;50.350;6.576;2023-06-10T11:15:48;96150.25;;;29.55;27.82
23229;BME280;11783;50.350;6.576;2023-06-10T11:18:23;96152.09;;;29.48;28.67
23229;BME280;11783;50.350;6.576;2023-06-10T11:23:30;96149.16;;;29.60;28.65
23229;BME280;11783;50.350;6.576;2023-06-10T11:26:18;96143.31;;;29.62;28.32
23229;BME280;11783;50.350;6.576;2023-06-10T11:31:22;96146.16;;;29.69;28.33
23229;BME280;11783;50.350;6.576;2023-06-10T11:33:52;96131.84;;;29.79;29.17
23229;BME280;11783;50.350;6.576;2023-06-10T11:36:18;96133.63;;;29.94;28.99
23229;BME280;11783;50.350;6.576;2023-06-10T11:38:44;96144.84;;;29.85;28.09
23229;BME280;11783;50.350;6.576;2023-06-10T11:41:11;96138.13;;;29.79;28.14
23229;BME280;11783;50.350;6.576;2023-06-10T11:43:42;96132.78;;;29.90;28.54
23229;BME280;11783;50.350;6.576;2023-06-10T11:46:08;96127.66;;;29.89;29.14
23229;BME280;11783;50.350;6.576;2023-06-10T11:48:34;96129.09;;;30.05;27.16
23229;BME280;11783;50.350;6.576;2023-06-10T11:50:59;96133.03;;;30.08;27.10
23229;BME280;11783;50.350;6.576;2023-06-10T11:53:25;96143.53;;;30.02;26.73
23229;BME280;11783;50.350;6.576;2023-06-10T11:55:51;96138.63;;;29.89;27.70
23229;BME280;11783;50.350;6.576;2023-06-10T11:58:18;96151.53;;;29.88;26.91
23229;BME280;11783;50.350;6.576;2023-06-10T12:00:45;96143.63;;;29.83;28.46
23229;BME280;11783;50.350;6.576;2023-06-10T12:03:10;96134.09;;;29.73;27.24
23229;BME280;11783;50.350;6.576;2023-06-10T12:05:36;96142.59;;;29.65;27.92
23229;BME280;11783;50.350;6.576;2023-06-10T12:08:09;96132.78;;;29.64;27.02
23229;BME280;11783;50.350;6.576;2023-06-10T12:10:42;96136.13;;;29.53;27.64
23229;BME280;11783;50.350;6.576;2023-06-10T12:13:09;96131.44;;;29.54;27.64
23229;BME280;11783;50.350;6.576;2023-06-10T12:15:34;96128.06;;;29.61;27.95
23229;BME280;11783;50.350;6.576;2023-06-10T12:18:01;96137.31;;;29.79;27.23
23229;BME280;11783;50.350;6.576;2023-06-10T12:20:31;96128.72;;;29.80;26.39
23229;BME280;11783;50.350;6.576;2023-06-10T12:22:59;96134.69;;;29.86;27.17
23229;BME280;11783;50.350;6.576;2023-06-10T12:25:26;96123.16;;;30.03;28.04
23229;BME280;11783;50.350;6.576;2023-06-10T12:27:54;96130.78;;;30.13;28.03
23229;BME280;11783;50.350;6.576;2023-06-10T12:30:20;96121.34;;;30.11;27.80
23229;BME280;11783;50.350;6.576;2023-06-10T12:32:47;96126.13;;;30.18;27.14
23229;BME280;11783;50.350;6.576;2023-06-10T12:35:20;96122.91;;;30.12;27.79
23229;BME280;11783;50.350;6.576;2023-06-10T12:38:01;96130.47;;;30.19;26.90
23229;BME280;11783;50.350;6.576;2023-06-10T12:40:34;96116.94;;;30.33;27.24
23229;BME280;11783;50.350;6.576;2023-06-10T12:43:01;96117.03;;;30.43;25.86
23229;BME280;11783;50.350;6.576;2023-06-10T12:45:30;96111.66;;;30.51;25.37
23229;BME280;11783;50.350;6.576;2023-06-10T12:50:32;96117.06;;;30.47;26.10
23229;BME280;11783;50.350;6.576;2023-06-10T12:52:59;96121.53;;;30.59;23.68
23229;BME280;11783;50.350;6.576;2023-06-10T12:55:25;96121.22;;;30.64;24.39
23229;BME280;11783;50.350;6.576;2023-06-10T12:57:51;96123.81;;;30.53;23.60
23229;BME280;11783;50.350;6.576;2023-06-10T13:00:17;96110.19;;;30.60;23.71
23229;BME280;11783;50.350;6.576;2023-06-10T13:02:43;96105.25;;;30.73;22.47
23229;BME280;11783;50.350;6.576;2023-06-10T13:05:08;96105.66;;;30.75;24.10
23229;BME280;11783;50.350;6.576;2023-06-10T13:07:34;96120.53;;;30.70;23.39
23229;BME280;11783;50.350;6.576;2023-06-10T13:09:59;96112.22;;;30.67;24.27
23229;BME280;11783;50.350;6.576;2023-06-10T13:12:26;96101.72;;;30.72;23.73
23229;BME280;11783;50.350;6.576;2023-06-10T13:14:54;96093.28;;;30.92;24.39
23229;BME280;11783;50.350;6.576;2023-06-10T13:17:20;96104.13;;;31.18;25.22